Time;durP1;ratioP1;P1;durP2;ratioP2;P2;SDS_P1;SDS_P2;PMS_P1;PMS_P2;Temp;Humidity;BMP_temperature;BMP_pressure;BME280_temperature;BME280_humidity;BME280_pressure;Samples;Min_cycle;Max_cycle;Signal;HPM_P1;HPM_P2
2022/01/01 00:01:29;;;;;;;;;;;9.40;99.90;;;;;;5097397;28;19908;-73
2022/01/01 00:03:54;;;;;;;;;;;9.00;99.90;;;;;;5097265;28;19923;-72
2022/01/01 00:06:20;;;;;;;;;;;8.90;99.90;;;;;;5097372;28;19939;-71
2022/01/01 00:08:46;;;;;;;;;;;;;;;;;;5097259;28;19916;-72
2022/01/01 00:11:12;;;;;;;;;;;8.60;99.90;;;;;;5097338;28;19908;-71
2022/01/01 00:13:38;;;;;;;;;;;8.40;99.90;;;;;;5097367;28;20408;-71
2022/01/01 00:16:09;;;;;;;;;;;8.50;99.90;;;;;;5097322;28;19907;-71
2022/01/01 00:18:37;;;;;;;;;;;8.50;99.90;;;;;;5096928;28;19908;-73
2022/01/01 00:21:04;;;;;;;;;;;8.20;99.90;;;;;;5097216;28;19908;-71
2022/01/01 00:23:29;;;;;;;;;;;8.70;99.90;;;;;;5097275;28;19912;-71
2022/01/01 00:25:55;;;;;;;;;;;8.80;99.90;;;;;;5097206;28;19986;-72
2022/01/01 00:28:20;;;;;;;;;;;8.80;99.90;;;;;;5096814;28;20359;-72
2022/01/01 00:30:46;;;;;;;;;;;8.90;99.90;;;;;;5096761;28;20404;-72
2022/01/01 00:33:11;;;;;;;;;;;9.00;99.90;;;;;;5096803;28;19912;-72
2022/01/01 00:35:38;;;;;;;;;;;9.10;99.90;;;;;;5096660;28;19991;-72
2022/01/01 00:38:03;;;;;;;;;;;9.00;99.90;;;;;;5096999;28;20010;-72
2022/01/01 00:40:29;;;;;;;;;;;9.00;99.90;;;;;;5096963;28;19990;-72
2022/01/01 00:42:54;;;;;;;;;;;8.70;99.90;;;;;;5096812;28;19947;-72
2022/01/01 00:45:21;;;;;;;;;;;8.50;99.90;;;;;;5096821;28;20022;-73
2022/01/01 00:47:47;;;;;;;;;;;8.80;99.90;;;;;;5096582;28;19920;-71
2022/01/01 00:50:12;;;;;;;;;;;8.90;99.90;;;;;;5096400;28;20033;-72
2022/01/01 00:52:38;;;;;;;;;;;8.80;99.90;;;;;;5096672;28;20240;-72
2022/01/01 00:55:04;;;;;;;;;;;8.90;99.90;;;;;;5096639;28;19912;-72
2022/01/01 00:57:29;;;;;;;;;;;8.90;99.90;;;;;;5096498;28;19908;-71
2022/01/01 00:59:55;;;;;;;;;;;9.10;99.90;;;;;;5096635;28;19995;-73
2022/01/01 01:02:20;;;;;;;;;;;9.10;99.90;;;;;;5096276;28;20370;-71
2022/01/01 01:04:46;;;;;;;;;;;9.20;99.90;;;;;;5095357;28;19962;-72
2022/01/01 01:07:12;;;;;;;;;;;9.10;99.90;;;;;;5095821;28;20441;-71
2022/01/01 01:09:38;;;;;;;;;;;10.20;99.90;;;;;;5095834;28;19919;-72
2022/01/01 01:12:04;;;;;;;;;;;9.30;99.90;;;;;;5096164;28;19944;-71
2022/01/01 01:14:39;;;;;;;;;;;9.10;99.90;;;;;;5096235;28;19908;-72
2022/01/01 01:17:05;;;;;;;;;;;9.00;99.90;;;;;;5096163;28;19953;-71
2022/01/01 01:19:30;;;;;;;;;;;8.90;99.90;;;;;;5096138;28;19912;-71
2022/01/01 01:21:57;;;;;;;;;;;8.90;99.90;;;;;;5095946;28;19939;-71
2022/01/01 01:24:24;;;;;;;;;;;9.00;99.90;;;;;;5095838;28;19908;-71
2022/01/01 01:26:51;;;;;;;;;;;9.00;99.90;;;;;;5095843;28;20306;-71
2022/01/01 01:29:17;;;;;;;;;;;9.00;99.90;;;;;;5095661;28;19908;-71
2022/01/01 01:31:43;;;;;;;;;;;9.00;99.90;;;;;;5095586;28;19960;-72
2022/01/01 01:34:09;;;;;;;;;;;8.60;99.90;;;;;;5095570;28;19980;-71
2022/01/01 01:36:34;;;;;;;;;;;8.50;99.90;;;;;;5095575;28;20020;-71
2022/01/01 01:39:00;;;;;;;;;;;8.70;99.90;;;;;;5095763;28;19914;-71
2022/01/01 01:41:30;;;;;;;;;;;9.20;99.90;;;;;;5095646;28;19939;-72
2022/01/01 01:43:57;;;;;;;;;;;9.20;99.90;;;;;;5095212;28;19915;-72
2022/01/01 01:46:23;;;;;;;;;;;9.10;99.90;;;;;;5093141;28;20013;-72
2022/01/01 01:48:48;;;;;;;;;;;8.90;99.90;;;;;;5095608;28;19912;-72
2022/01/01 01:51:15;;;;;;;;;;;8.70;99.90;;;;;;5095562;28;19912;-72
2022/01/01 01:53:41;;;;;;;;;;;8.80;99.90;;;;;;5095475;28;19908;-72
2022/01/01 01:56:06;;;;;;;;;;;9.00;99.90;;;;;;5095431;28;19990;-71
2022/01/01 01:58:33;;;;;;;;;;;9.00;99.90;;;;;;5095453;28;19908;-72
2022/01/01 02:03:36;;;;;;;;;;;9.50;99.90;;;;;;5094931;28;19911;-72
2022/01/01 02:06:04;;;;;;;;;;;9.40;99.90;;;;;;5095166;28;19912;-72
2022/01/01 02:08:29;;;;;;;;;;;9.40;99.90;;;;;;5094984;28;19916;-72
2022/01/01 02:10:55;;;;;;;;;;;9.20;99.90;;;;;;5094982;28;19908;-72
2022/01/01 02:13:33;;;;;;;;;;;9.10;99.90;;;;;;5094759;28;20259;-71
2022/01/01 02:16:27;;;;;;;;;;;9.20;99.90;;;;;;5093838;28;19908;-72
2022/01/01 02:18:53;;;;;;;;;;;9.10;99.90;;;;;;5094677;28;19908;-71
2022/01/01 02:21:20;;;;;;;;;;;8.90;99.90;;;;;;5094636;28;19912;-72
2022/01/01 02:23:47;;;;;;;;;;;9.00;99.90;;;;;;5094501;28;20373;-72
2022/01/01 02:26:15;;;;;;;;;;;8.80;99.90;;;;;;5094296;28;20344;-72
2022/01/01 02:28:41;;;;;;;;;;;8.80;99.90;;;;;;5094494;28;19923;-72
2022/01/01 02:31:07;;;;;;;;;;;8.80;99.90;;;;;;5094359;28;19939;-72
2022/01/01 02:33:32;;;;;;;;;;;8.70;99.90;;;;;;5094335;28;19908;-72
2022/01/01 02:35:58;;;;;;;;;;;8.70;99.90;;;;;;5094227;28;20311;-71
2022/01/01 02:38:24;;;;;;;;;;;8.90;99.90;;;;;;5094555;28;19912;-72
2022/01/01 02:40:49;;;;;;;;;;;8.90;99.90;;;;;;5094618;28;19914;-72
2022/01/01 02:43:17;;;;;;;;;;;9.00;99.90;;;;;;5090700;28;20416;-72
2022/01/01 02:45:42;;;;;;;;;;;8.90;99.90;;;;;;5071618;28;19912;-72
2022/01/01 02:48:08;;;;;;;;;;;8.80;99.90;;;;;;5073003;28;19923;-71
2022/01/01 02:50:34;;;;;;;;;;;8.40;99.90;;;;;;5073982;28;19912;-72
2022/01/01 02:52:59;;;;;;;;;;;8.40;99.90;;;;;;5073744;28;19947;-72
2022/01/01 02:55:25;;;;;;;;;;;8.70;99.90;;;;;;5073862;28;20399;-71
2022/01/01 02:57:51;;;;;;;;;;;8.80;99.90;;;;;;5073958;28;20287;-71
2022/01/01 03:00:16;;;;;;;;;;;8.50;99.90;;;;;;5073950;28;20364;-72
2022/01/01 03:02:45;;;;;;;;;;;;;;;;;;5074011;28;19908;-72
2022/01/01 03:05:10;;;;;;;;;;;9.10;99.90;;;;;;5073806;28;19970;-71
2022/01/01 03:07:36;;;;;;;;;;;9.20;99.90;;;;;;5073736;28;19921;-72
2022/01/01 03:10:03;;;;;;;;;;;9.30;99.90;;;;;;5073944;28;20045;-73
2022/01/01 03:12:28;;;;;;;;;;;9.30;99.90;;;;;;5073702;28;20414;-73
2022/01/01 03:14:54;;;;;;;;;;;9.20;99.90;;;;;;5073558;28;19908;-73
2022/01/01 03:17:20;;;;;;;;;;;9.10;99.90;;;;;;5073538;28;19913;-73
2022/01/01 03:19:45;;;;;;;;;;;8.80;99.90;;;;;;5073480;28;19915;-72
2022/01/01 03:22:11;;;;;;;;;;;9.10;99.90;;;;;;5073527;28;20272;-73
2022/01/01 03:24:36;;;;;;;;;;;9.30;99.90;;;;;;5073738;28;19912;-73
2022/01/01 03:27:02;;;;;;;;;;;9.40;99.90;;;;;;5073535;28;19970;-72
2022/01/01 03:29:30;;;;;;;;;;;9.50;99.90;;;;;;5073868;28;19921;-73
2022/01/01 03:31:56;;;;;;;;;;;9.70;99.90;;;;;;5073549;28;20241;-73
2022/01/01 03:34:21;;;;;;;;;;;9.70;99.90;;;;;;5073394;28;19908;-73
2022/01/01 03:36:47;;;;;;;;;;;9.70;99.90;;;;;;5073263;28;19919;-73
2022/01/01 03:39:13;;;;;;;;;;;9.80;99.90;;;;;;5077646;28;20116;-72
2022/01/01 03:41:38;;;;;;;;;;;10.00;99.90;;;;;;5093669;28;19908;-72
2022/01/01 03:44:04;;;;;;;;;;;9.80;99.90;;;;;;5093796;28;19908;-71
2022/01/01 03:46:30;;;;;;;;;;;9.70;99.90;;;;;;5093723;28;19916;-74
2022/01/01 03:48:55;;;;;;;;;;;9.50;99.90;;;;;;5093805;28;19923;-73
2022/01/01 03:51:21;;;;;;;;;;;9.40;99.90;;;;;;5093594;28;19908;-73
2022/01/01 03:53:46;;;;;;;;;;;9.40;99.90;;;;;;5093645;28;19954;-73
2022/01/01 03:56:14;;;;;;;;;;;9.50;99.90;;;;;;5093629;28;19908;-73
2022/01/01 03:58:40;;;;;;;;;;;9.60;99.90;;;;;;5093713;28;20343;-73
2022/01/01 04:01:06;;;;;;;;;;;9.70;99.90;;;;;;5093649;28;19943;-72
2022/01/01 04:03:31;;;;;;;;;;;9.90;99.90;;;;;;5093240;28;20322;-72
2022/01/01 04:05:57;;;;;;;;;;;9.90;99.90;;;;;;5093030;28;19952;-71
2022/01/01 04:08:22;;;;;;;;;;;9.80;99.90;;;;;;5093510;28;19912;-72
2022/01/01 04:10:48;;;;;;;;;;;9.90;99.90;;;;;;5093184;28;19919;-72
2022/01/01 04:13:14;;;;;;;;;;;10.00;99.90;;;;;;5093523;28;19908;-72
2022/01/01 04:15:40;;;;;;;;;;;9.70;99.90;;;;;;5093430;28;19912;-71
2022/01/01 04:18:12;;;;;;;;;;;9.50;99.90;;;;;;5093406;28;19908;-73
2022/01/01 04:20:38;;;;;;;;;;;9.40;99.90;;;;;;5093303;28;19915;-73
2022/01/01 04:23:07;;;;;;;;;;;9.40;99.90;;;;;;5093118;28;19912;-73
2022/01/01 04:25:32;;;;;;;;;;;9.60;99.90;;;;;;5092949;28;19990;-73
2022/01/01 04:27:59;;;;;;;;;;;9.40;99.90;;;;;;5092992;28;19919;-73
2022/01/01 04:30:28;;;;;;;;;;;9.40;99.90;;;;;;5093146;28;20274;-73
2022/01/01 04:32:54;;;;;;;;;;;9.30;99.90;;;;;;5093013;28;19955;-73
2022/01/01 04:35:20;;;;;;;;;;;9.00;99.90;;;;;;5092835;28;20295;-72
2022/01/01 04:37:45;;;;;;;;;;;8.80;99.90;;;;;;5093052;28;20309;-72
2022/01/01 04:40:12;;;;;;;;;;;9.10;99.90;;;;;;5096440;28;19947;-73
2022/01/01 04:42:38;;;;;;;;;;;9.20;99.90;;;;;;5096606;28;19912;-73
2022/01/01 04:45:04;;;;;;;;;;;9.10;99.90;;;;;;5096417;28;19969;-73
2022/01/01 04:47:29;;;;;;;;;;;9.00;99.90;;;;;;5096603;28;19920;-74
2022/01/01 04:49:55;;;;;;;;;;;8.90;99.90;;;;;;5096764;28;19947;-73
2022/01/01 04:52:21;;;;;;;;;;;8.90;99.90;;;;;;5096581;28;19915;-73
2022/01/01 04:54:47;;;;;;;;;;;;;;;;;;5096453;28;19934;-72
2022/01/01 04:57:13;;;;;;;;;;;8.80;99.90;;;;;;5096434;28;19907;-72
2022/01/01 04:59:40;;;;;;;;;;;8.70;99.90;;;;;;5096571;28;19999;-72
2022/01/01 05:02:06;;;;;;;;;;;8.70;99.90;;;;;;5096425;28;20295;-72
2022/01/01 05:04:32;;;;;;;;;;;8.60;99.90;;;;;;5096426;28;19920;-72
2022/01/01 05:06:57;;;;;;;;;;;8.40;99.90;;;;;;5096208;28;19920;-71
2022/01/01 05:09:23;;;;;;;;;;;8.50;99.90;;;;;;5096185;28;20002;-71
2022/01/01 05:11:48;;;;;;;;;;;8.30;99.90;;;;;;5096127;28;19908;-71
2022/01/01 05:14:15;;;;;;;;;;;7.90;99.90;;;;;;5096266;28;19953;-72
2022/01/01 05:16:40;;;;;;;;;;;8.10;99.90;;;;;;5096038;28;20394;-72
2022/01/01 05:19:06;;;;;;;;;;;8.20;99.90;;;;;;5095702;28;19908;-71
2022/01/01 05:21:35;;;;;;;;;;;8.30;99.90;;;;;;5095835;28;20069;-73
2022/01/01 05:24:00;;;;;;;;;;;8.30;99.90;;;;;;5096079;28;19908;-73
2022/01/01 05:26:26;;;;;;;;;;;8.30;99.90;;;;;;5095826;28;20419;-73
2022/01/01 05:28:52;;;;;;;;;;;8.20;99.90;;;;;;5095841;28;20306;-73
2022/01/01 05:31:19;;;;;;;;;;;8.20;99.90;;;;;;5095325;28;19923;-73
2022/01/01 05:33:45;;;;;;;;;;;8.30;99.90;;;;;;5095800;28;19969;-73
2022/01/01 05:36:11;;;;;;;;;;;8.10;99.90;;;;;;5095836;28;20305;-72
2022/01/01 05:38:37;;;;;;;;;;;8.10;99.90;;;;;;5095642;28;19962;-74
2022/01/01 05:41:03;;;;;;;;;;;8.20;99.90;;;;;;5095591;28;20111;-73
2022/01/01 05:43:29;;;;;;;;;;;8.30;99.90;;;;;;5095500;28;19915;-73
2022/01/01 05:45:54;;;;;;;;;;;8.30;99.90;;;;;;5093966;28;20369;-73
2022/01/01 05:48:20;;;;;;;;;;;8.30;99.90;;;;;;5095616;28;20313;-73
2022/01/01 05:50:45;;;;;;;;;;;8.30;99.90;;;;;;5095446;28;19917;-72
2022/01/01 05:53:11;;;;;;;;;;;8.10;99.90;;;;;;5095552;28;19916;-72
2022/01/01 05:55:37;;;;;;;;;;;8.00;99.90;;;;;;5095463;28;19912;-73
2022/01/01 05:58:02;;;;;;;;;;;8.00;99.90;;;;;;5094580;28;19960;-74
2022/01/01 06:00:28;;;;;;;;;;;8.00;99.90;;;;;;5090489;28;19915;-74
2022/01/01 06:02:55;;;;;;;;;;;8.20;99.90;;;;;;5075944;28;19908;-74
2022/01/01 06:05:21;;;;;;;;;;;8.20;99.90;;;;;;5093746;28;19915;-74
2022/01/01 06:07:47;;;;;;;;;;;8.00;99.90;;;;;;5094940;28;20371;-74
2022/01/01 06:10:12;;;;;;;;;;;8.00;99.90;;;;;;5095091;28;19982;-74
2022/01/01 06:12:39;;;;;;;;;;;8.00;99.90;;;;;;5095028;28;19908;-74
2022/01/01 06:15:05;;;;;;;;;;;7.80;99.90;;;;;;5093361;28;19998;-74
2022/01/01 06:17:31;;;;;;;;;;;7.50;99.90;;;;;;5093401;28;19990;-74
2022/01/01 06:19:56;;;;;;;;;;;7.50;99.90;;;;;;5074717;28;20427;-74
2022/01/01 06:22:22;;;;;;;;;;;7.50;99.90;;;;;;5093002;28;20006;-74
2022/01/01 06:24:47;;;;;;;;;;;7.70;99.90;;;;;;5093899;28;19941;-74
2022/01/01 06:27:13;;;;;;;;;;;7.50;99.90;;;;;;5094095;28;20279;-74
2022/01/01 06:29:39;;;;;;;;;;;7.50;99.90;;;;;;5094273;28;19908;-74
2022/01/01 06:32:05;;;;;;;;;;;7.50;99.90;;;;;;5093798;28;19954;-74
2022/01/01 06:34:30;;;;;;;;;;;7.70;99.90;;;;;;5094272;28;19904;-74
2022/01/01 06:36:56;;;;;;;;;;;7.70;99.90;;;;;;5093637;28;20504;-74
2022/01/01 06:39:21;;;;;;;;;;;7.60;99.90;;;;;;5094086;28;20382;-74
2022/01/01 06:41:47;;;;;;;;;;;7.50;99.90;;;;;;5094342;28;19954;-74
2022/01/01 06:44:13;;;;;;;;;;;7.60;99.90;;;;;;5094070;28;19965;-74
2022/01/01 06:46:38;;;;;;;;;;;7.70;99.90;;;;;;5091231;28;20266;-74
2022/01/01 06:49:04;;;;;;;;;;;7.90;99.90;;;;;;5077282;28;19909;-74
2022/01/01 06:51:32;;;;;;;;;;;8.00;99.90;;;;;;5072700;28;20295;-73
2022/01/01 06:53:58;;;;;;;;;;;8.20;99.90;;;;;;5074090;28;19908;-73
2022/01/01 06:56:23;;;;;;;;;;;8.40;99.90;;;;;;5074011;28;20007;-73
2022/01/01 06:58:49;;;;;;;;;;;8.30;99.90;;;;;;5074041;28;20007;-73
2022/01/01 07:01:15;;;;;;;;;;;8.30;99.90;;;;;;5073533;28;19916;-73
2022/01/01 07:03:40;;;;;;;;;;;8.30;99.90;;;;;;5073992;28;19974;-73
2022/01/01 07:06:06;;;;;;;;;;;8.20;99.90;;;;;;5073808;28;19995;-73
2022/01/01 07:08:32;;;;;;;;;;;8.10;99.90;;;;;;5073687;28;19913;-73
2022/01/01 07:10:57;;;;;;;;;;;8.10;99.90;;;;;;5073633;28;19959;-73
2022/01/01 07:13:24;;;;;;;;;;;7.80;99.90;;;;;;5073542;28;19946;-72
2022/01/01 07:15:50;;;;;;;;;;;7.40;99.90;;;;;;5073697;28;19908;-74
2022/01/01 07:18:16;;;;;;;;;;;7.50;99.90;;;;;;5073517;28;19961;-74
2022/01/01 07:20:42;;;;;;;;;;;7.70;99.90;;;;;;5073453;28;19913;-74
2022/01/01 07:23:07;;;;;;;;;;;7.90;99.90;;;;;;5073501;28;20379;-74
2022/01/01 07:25:33;;;;;;;;;;;7.70;99.90;;;;;;5073455;28;20374;-74
2022/01/01 07:27:59;;;;;;;;;;;7.70;99.90;;;;;;5073176;28;20318;-74
2022/01/01 07:30:25;;;;;;;;;;;7.60;99.90;;;;;;5073461;28;19965;-74
2022/01/01 07:32:50;;;;;;;;;;;7.70;99.90;;;;;;5073553;28;20355;-73
2022/01/01 07:35:17;;;;;;;;;;;7.80;99.90;;;;;;5073537;28;19908;-74
2022/01/01 07:37:42;;;;;;;;;;;7.90;99.90;;;;;;5080059;28;19915;-74
2022/01/01 07:40:10;;;;;;;;;;;7.70;99.90;;;;;;5093859;28;19908;-74
2022/01/01 07:42:35;;;;;;;;;;;7.70;99.90;;;;;;5093334;28;19940;-74
2022/01/01 07:45:01;;;;;;;;;;;7.80;99.90;;;;;;5093571;28;19993;-74
2022/01/01 07:47:27;;;;;;;;;;;7.90;99.90;;;;;;5093770;28;19916;-74
2022/01/01 07:49:52;;;;;;;;;;;7.90;99.90;;;;;;5093845;28;20389;-74
2022/01/01 07:52:18;;;;;;;;;;;8.10;99.90;;;;;;5093719;28;19984;-74
2022/01/01 07:54:44;;;;;;;;;;;8.20;99.90;;;;;;5093257;28;19946;-74
2022/01/01 07:57:09;;;;;;;;;;;8.00;99.90;;;;;;5093573;28;20036;-74
2022/01/01 07:59:35;;;;;;;;;;;7.90;99.90;;;;;;5093491;28;20252;-74
2022/01/01 08:02:00;;;;;;;;;;;8.00;99.90;;;;;;5093594;28;20422;-74
2022/01/01 08:04:26;;;;;;;;;;;8.00;99.90;;;;;;5093656;28;19980;-74
2022/01/01 08:06:52;;;;;;;;;;;8.40;99.90;;;;;;5093505;28;19942;-74
2022/01/01 08:09:17;;;;;;;;;;;8.40;99.90;;;;;;5093438;28;19912;-74
2022/01/01 08:11:43;;;;;;;;;;;8.60;99.90;;;;;;5093456;28;20274;-74
2022/01/01 08:14:09;;;;;;;;;;;8.70;99.90;;;;;;5095529;28;19925;-74
2022/01/01 08:16:34;;;;;;;;;;;8.70;99.90;;;;;;5097494;28;19908;-74
2022/01/01 08:19:00;;;;;;;;;;;8.80;99.90;;;;;;5097452;28;19911;-73
2022/01/01 08:21:26;;;;;;;;;;;8.80;99.90;;;;;;5097392;28;20416;-73
2022/01/01 08:23:51;;;;;;;;;;;8.90;99.90;;;;;;5096877;28;20423;-74
2022/01/01 08:26:17;;;;;;;;;;;9.00;99.90;;;;;;5096674;28;19928;-75
2022/01/01 08:28:42;;;;;;;;;;;9.10;99.90;;;;;;5097090;28;20275;-73
2022/01/01 08:31:08;;;;;;;;;;;9.20;99.90;;;;;;5097076;28;19985;-73
2022/01/01 08:33:34;;;;;;;;;;;;;;;;;;5097075;28;19912;-73
2022/01/01 08:36:03;;;;;;;;;;;9.50;99.90;;;;;;5097086;28;19908;-74
2022/01/01 08:38:29;;;;;;;;;;;9.50;99.90;;;;;;5096712;28;19908;-73
2022/01/01 08:40:55;;;;;;;;;;;9.60;99.90;;;;;;5096563;28;20309;-73
2022/01/01 08:43:22;;;;;;;;;;;9.60;99.90;;;;;;5078569;28;19908;-73
2022/01/01 08:45:51;;;;;;;;;;;;;;;;;;5096694;28;19911;-73
2022/01/01 08:48:16;;;;;;;;;;;10.00;99.90;;;;;;5096706;28;20340;-74
2022/01/01 08:50:42;;;;;;;;;;;10.10;99.90;;;;;;5096791;28;19911;-74
2022/01/01 08:53:08;;;;;;;;;;;;;;;;;;5096668;28;19912;-73
2022/01/01 08:55:34;;;;;;;;;;;10.50;99.90;;;;;;5096445;28;19912;-73
2022/01/01 08:58:00;;;;;;;;;;;10.70;99.90;;;;;;5096363;28;19908;-75
2022/01/01 09:00:25;;;;;;;;;;;10.90;99.90;;;;;;5096273;28;19915;-74
2022/01/01 09:02:51;;;;;;;;;;;11.00;99.90;;;;;;5096319;28;19908;-73
2022/01/01 09:05:17;;;;;;;;;;;11.10;99.90;;;;;;5096343;28;19943;-74
2022/01/01 09:07:42;;;;;;;;;;;11.10;99.90;;;;;;5096376;28;19954;-74
2022/01/01 09:10:08;;;;;;;;;;;10.90;99.90;;;;;;5096254;28;19942;-74
2022/01/01 09:12:33;;;;;;;;;;;11.20;99.90;;;;;;5096443;28;19969;-74
2022/01/01 09:14:59;;;;;;;;;;;11.40;99.90;;;;;;5096263;28;19908;-73
2022/01/01 09:17:25;;;;;;;;;;;11.60;99.90;;;;;;5096286;28;19908;-74
2022/01/01 09:19:50;;;;;;;;;;;11.50;99.90;;;;;;5096159;28;20405;-75
2022/01/01 09:22:17;;;;;;;;;;;11.50;99.90;;;;;;5096223;28;19991;-75
2022/01/01 09:24:43;;;;;;;;;;;11.70;99.90;;;;;;5095633;28;19915;-74
2022/01/01 09:27:08;;;;;;;;;;;11.70;99.90;;;;;;5096144;28;19920;-74
2022/01/01 09:29:34;;;;;;;;;;;11.90;99.90;;;;;;5096075;28;20340;-74
2022/01/01 09:32:00;;;;;;;;;;;11.50;99.90;;;;;;5095892;28;19907;-75
2022/01/01 09:34:25;;;;;;;;;;;11.20;99.90;;;;;;5095776;28;20278;-75
2022/01/01 09:36:54;;;;;;;;;;;11.20;99.90;;;;;;5095475;28;19908;-75
2022/01/01 09:39:20;;;;;;;;;;;11.50;99.90;;;;;;5095807;28;19912;-75
2022/01/01 09:41:45;;;;;;;;;;;11.50;99.90;;;;;;5095877;28;19988;-75
2022/01/01 09:44:12;;;;;;;;;;;11.50;99.90;;;;;;5095800;28;19908;-75
2022/01/01 09:46:39;;;;;;;;;;;11.40;99.90;;;;;;5095210;28;19951;-75
2022/01/01 09:49:04;;;;;;;;;;;11.50;99.90;;;;;;5094921;28;19991;-75
2022/01/01 09:51:30;;;;;;;;;;;11.50;99.90;;;;;;5095440;28;20142;-75
2022/01/01 09:53:56;;;;;;;;;;;11.40;99.90;;;;;;5095483;28;20271;-75
2022/01/01 09:56:21;;;;;;;;;;;11.50;99.90;;;;;;5095564;28;19912;-74
2022/01/01 09:58:47;;;;;;;;;;;11.50;99.90;;;;;;5095184;28;19908;-74
2022/01/01 10:01:14;;;;;;;;;;;11.40;99.90;;;;;;5095144;28;19915;-74
2022/01/01 10:03:41;;;;;;;;;;;11.40;99.90;;;;;;5095450;28;19907;-74
2022/01/01 10:06:14;;;;;;;;;;;11.60;99.90;;;;;;5095380;28;20317;-74
2022/01/01 10:08:41;;;;;;;;;;;11.60;99.90;;;;;;5095335;28;19920;-74
2022/01/01 10:11:07;;;;;;;;;;;11.60;99.90;;;;;;5095221;28;20339;-73
2022/01/01 10:13:37;;;;;;;;;;;11.70;99.90;;;;;;5095006;28;19961;-74
2022/01/01 10:16:04;;;;;;;;;;;11.80;99.90;;;;;;5094972;28;20352;-73
2022/01/01 10:18:34;;;;;;;;;;;12.00;99.90;;;;;;5095051;28;20293;-73
2022/01/01 10:21:08;;;;;;;;;;;11.90;99.90;;;;;;5095113;28;19962;-74
2022/01/01 10:23:34;;;;;;;;;;;12.00;99.90;;;;;;5094833;28;19935;-73
2022/01/01 10:29:18;;;;;;;;;;;12.30;99.90;;;;;;5094934;28;20381;-75
2022/01/01 10:32:00;;;;;;;;;;;12.10;99.90;;;;;;5087205;28;19936;-75
2022/01/01 10:34:27;;;;;;;;;;;12.20;99.90;;;;;;5094764;28;19907;-75
2022/01/01 10:36:53;;;;;;;;;;;12.40;99.90;;;;;;5093883;28;19953;-75
2022/01/01 10:39:21;;;;;;;;;;;12.50;99.90;;;;;;5094559;28;19908;-75
2022/01/01 10:41:58;;;;;;;;;;;12.70;99.90;;;;;;5094493;28;19912;-75
2022/01/01 10:44:29;;;;;;;;;;;12.80;99.90;;;;;;5094658;28;19912;-75
2022/01/01 10:46:58;;;;;;;;;;;12.70;99.90;;;;;;5094252;28;19915;-75
2022/01/01 10:49:33;;;;;;;;;;;12.60;99.90;;;;;;5093213;28;19923;-75
2022/01/01 10:52:15;;;;;;;;;;;12.70;99.90;;;;;;5080406;28;20367;-75
2022/01/01 10:54:50;;;;;;;;;;;12.60;99.90;;;;;;5072302;28;19916;-75
2022/01/01 10:57:26;;;;;;;;;;;12.80;99.90;;;;;;5073878;28;20331;-75
2022/01/01 11:00:03;;;;;;;;;;;12.80;99.90;;;;;;5073851;28;19919;-75
2022/01/01 11:02:31;;;;;;;;;;;12.80;99.90;;;;;;5073821;28;19908;-75
2022/01/01 11:04:57;;;;;;;;;;;12.90;99.90;;;;;;5073924;28;19919;-75
2022/01/01 11:07:26;;;;;;;;;;;12.90;99.90;;;;;;5073833;28;19927;-75
2022/01/01 11:09:52;;;;;;;;;;;13.00;99.90;;;;;;5074018;28;19994;-75
2022/01/01 11:12:20;;;;;;;;;;;13.10;99.90;;;;;;5073928;28;19924;-75
2022/01/01 11:14:46;;;;;;;;;;;13.20;99.90;;;;;;5073858;28;19915;-75
2022/01/01 11:17:12;;;;;;;;;;;13.20;99.90;;;;;;5073691;28;19908;-75
2022/01/01 11:19:37;;;;;;;;;;;13.10;99.90;;;;;;5073946;28;19908;-75
2022/01/01 11:22:03;;;;;;;;;;;13.20;99.90;;;;;;5073829;28;19922;-75
2022/01/01 11:24:30;;;;;;;;;;;13.00;99.90;;;;;;5073819;28;19994;-75
2022/01/01 11:26:56;;;;;;;;;;;12.70;99.90;;;;;;5073565;28;19916;-75
2022/01/01 11:29:22;;;;;;;;;;;12.50;99.90;;;;;;5073708;28;19909;-75
2022/01/01 11:31:47;;;;;;;;;;;12.90;99.90;;;;;;5073578;28;19908;-74
2022/01/01 11:34:14;;;;;;;;;;;13.30;99.90;;;;;;5073997;28;19918;-74
2022/01/01 11:36:40;;;;;;;;;;;13.40;99.90;;;;;;5073805;28;20003;-75
2022/01/01 11:39:06;;;;;;;;;;;13.50;99.90;;;;;;5073757;28;19951;-75
2022/01/01 11:41:38;;;;;;;;;;;13.70;99.90;;;;;;5073755;28;19962;-75
2022/01/01 11:44:24;;;;;;;;;;;13.60;99.90;;;;;;5080344;28;20366;-75
2022/01/01 11:47:03;;;;;;;;;;;13.60;99.90;;;;;;5092930;28;20382;-75
2022/01/01 11:49:29;;;;;;;;;;;13.40;99.90;;;;;;5098107;28;19912;-75
2022/01/01 11:51:55;;;;;;;;;;;13.20;99.90;;;;;;5098019;28;19908;-75
2022/01/01 11:54:27;;;;;;;;;;;13.10;99.90;;;;;;5097686;28;20386;-75
2022/01/01 11:57:04;;;;;;;;;;;13.30;99.90;;;;;;5097608;28;20267;-75
2022/01/01 11:59:39;;;;;;;;;;;13.00;99.90;;;;;;5097620;28;19908;-75
2022/01/01 12:02:10;;;;;;;;;;;13.10;99.90;;;;;;5097542;28;19912;-75
2022/01/01 12:04:37;;;;;;;;;;;13.50;99.90;;;;;;5097540;28;19908;-75
2022/01/01 12:07:24;;;;;;;;;;;13.70;99.90;;;;;;5097380;28;19916;-74
2022/01/01 12:10:06;;;;;;;;;;;13.80;99.90;;;;;;5079427;28;19919;-75
2022/01/01 12:12:50;;;;;;;;;;;13.90;99.90;;;;;;5097546;28;19908;-74
2022/01/01 12:15:21;;;;;;;;;;;14.00;99.90;;;;;;5097516;28;19915;-73
2022/01/01 12:17:57;;;;;;;;;;;14.10;99.90;;;;;;5097373;28;20350;-74
2022/01/01 12:20:26;;;;;;;;;;;14.20;99.90;;;;;;5097347;28;19977;-74
2022/01/01 12:22:51;;;;;;;;;;;14.20;99.90;;;;;;5097331;28;19907;-74
2022/01/01 12:25:28;;;;;;;;;;;13.80;99.90;;;;;;5097191;28;19999;-74
2022/01/01 12:27:58;;;;;;;;;;;13.90;99.90;;;;;;5097151;28;19920;-74
2022/01/01 12:30:29;;;;;;;;;;;14.10;99.90;;;;;;5097184;28;19908;-73
2022/01/01 12:32:55;;;;;;;;;;;14.20;99.90;;;;;;5097020;28;19951;-74
2022/01/01 12:35:30;;;;;;;;;;;14.10;99.90;;;;;;5097033;28;20406;-74
2022/01/01 12:38:15;;;;;;;;;;;13.70;99.90;;;;;;5096768;28;19908;-74
2022/01/01 12:41:00;;;;;;;;;;;13.90;99.90;;;;;;5096086;28;19912;-74
2022/01/01 12:43:26;;;;;;;;;;;14.10;99.90;;;;;;5096777;28;19908;-74
2022/01/01 12:45:53;;;;;;;;;;;14.10;99.90;;;;;;5096781;28;19916;-74
2022/01/01 12:48:23;;;;;;;;;;;14.10;99.90;;;;;;5096845;28;19916;-74
2022/01/01 12:50:54;;;;;;;;;;;14.10;99.90;;;;;;5096837;28;19908;-74
2022/01/01 12:53:20;;;;;;;;;;;14.10;99.90;;;;;;5096488;28;20360;-74
2022/01/01 12:55:56;;;;;;;;;;;14.10;99.90;;;;;;5096414;28;19915;-73
2022/01/01 12:58:22;;;;;;;;;;;14.40;99.90;;;;;;5096639;28;19957;-74
2022/01/01 13:00:47;;;;;;;;;;;14.60;99.90;;;;;;5095824;28;19908;-74
2022/01/01 13:03:13;;;;;;;;;;;14.40;99.90;;;;;;5096524;28;19988;-74
2022/01/01 13:05:39;;;;;;;;;;;14.40;99.90;;;;;;5096477;28;19915;-74
2022/01/01 13:08:04;;;;;;;;;;;14.30;99.90;;;;;;5096470;28;19916;-74
2022/01/01 13:10:31;;;;;;;;;;;14.00;99.90;;;;;;5096515;28;19951;-74
2022/01/01 13:12:56;;;;;;;;;;;13.80;99.90;;;;;;5096394;28;19944;-74
2022/01/01 13:15:23;;;;;;;;;;;14.00;99.90;;;;;;5096302;28;19919;-75
2022/01/01 13:17:49;;;;;;;;;;;14.20;99.90;;;;;;5096236;28;19914;-74
2022/01/01 13:20:15;;;;;;;;;;;14.10;99.90;;;;;;5096081;28;20359;-74
2022/01/01 13:22:41;;;;;;;;;;;14.20;99.90;;;;;;5096116;28;19961;-74
2022/01/01 13:25:07;;;;;;;;;;;14.10;99.90;;;;;;5096232;28;19959;-74
2022/01/01 13:27:33;;;;;;;;;;;14.00;99.90;;;;;;5095806;28;19926;-74
2022/01/01 13:29:59;;;;;;;;;;;14.10;99.90;;;;;;5095759;28;19944;-74
2022/01/01 13:32:25;;;;;;;;;;;13.90;99.90;;;;;;5095776;28;19908;-74
2022/01/01 13:34:53;;;;;;;;;;;13.90;99.90;;;;;;5095920;28;19939;-74
2022/01/01 13:37:23;;;;;;;;;;;13.90;99.90;;;;;;5095913;28;19919;-74
2022/01/01 13:39:48;;;;;;;;;;;14.00;99.90;;;;;;5095350;28;19908;-74
2022/01/01 13:42:17;;;;;;;;;;;14.10;99.90;;;;;;5094931;28;19908;-74
2022/01/01 13:44:43;;;;;;;;;;;14.10;99.90;;;;;;5095411;28;20279;-74
2022/01/01 13:47:12;;;;;;;;;;;14.10;99.90;;;;;;5094613;28;20268;-74
2022/01/01 13:49:50;;;;;;;;;;;13.90;99.90;;;;;;5094850;28;19908;-74
2022/01/01 13:52:23;;;;;;;;;;;13.90;99.90;;;;;;5095576;28;19915;-74
2022/01/01 13:54:55;;;;;;;;;;;14.00;99.90;;;;;;5095609;28;19919;-74
2022/01/01 13:57:21;;;;;;;;;;;13.90;99.90;;;;;;5095622;28;19952;-74
2022/01/01 13:59:52;;;;;;;;;;;14.00;99.90;;;;;;5095282;28;19995;-74
2022/01/01 14:02:17;;;;;;;;;;;14.00;99.90;;;;;;5095318;28;19915;-74
2022/01/01 14:04:44;;;;;;;;;;;14.00;99.90;;;;;;5095262;28;19915;-74
2022/01/01 14:07:13;;;;;;;;;;;14.00;99.90;;;;;;5095240;28;19944;-74
2022/01/01 14:09:57;;;;;;;;;;;14.00;99.90;;;;;;5095285;28;19934;-74
2022/01/01 14:12:24;;;;;;;;;;;13.90;99.90;;;;;;5095205;28;19943;-74
2022/01/01 14:14:49;;;;;;;;;;;13.80;99.90;;;;;;5095331;28;19919;-74
2022/01/01 14:17:15;;;;;;;;;;;13.80;99.90;;;;;;5095125;28;19908;-74
2022/01/01 14:19:40;;;;;;;;;;;13.70;99.90;;;;;;5094945;28;19961;-74
2022/01/01 14:22:10;;;;;;;;;;;13.70;99.90;;;;;;5094970;28;20015;-74
2022/01/01 14:24:47;;;;;;;;;;;13.70;99.90;;;;;;5095054;28;19953;-74
2022/01/01 14:27:13;;;;;;;;;;;13.60;99.90;;;;;;5094799;28;19916;-75
2022/01/01 14:29:39;;;;;;;;;;;13.60;99.90;;;;;;5094917;28;19919;-74
2022/01/01 14:32:04;;;;;;;;;;;13.60;99.90;;;;;;5094868;28;20002;-74